Time;durP1;ratioP1;P1;durP2;ratioP2;P2;SDS_P1;SDS_P2;PMS_P1;PMS_P2;Temp;Humidity;BMP_temperature;BMP_pressure;BME280_temperature;BME280_humidity;BME280_pressure;Samples;Min_cycle;Max_cycle;Signal;HPM_P1;HPM_P2
2023/06/21 00:01:46;;;;;;;8.80;8.10;;;;;;;21.97;80.23;99591.47;5095531;28;20241;-70
2023/06/21 00:04:13;;;;;;;10.30;8.73;;;;;;;21.95;80.66;99596.31;5095612;28;20200;-71
2023/06/21 00:06:40;;;;;;;8.77;8.13;;;;;;;21.93;80.57;99590.38;5095358;28;20191;-71
2023/06/21 00:09:06;;;;;;;7.80;7.33;;;;;;;21.91;81.29;99590.66;5095142;28;20195;-71
2023/06/21 00:11:33;;;;;;;9.30;8.40;;;;;;;21.85;81.73;99597.09;5094984;28;20203;-70
2023/06/21 00:14:00;;;;;;;9.03;8.33;;;;;;;21.53;81.32;99539.69;5095569;28;20187;-71
2023/06/21 00:16:28;;;;;;;8.83;7.97;;;;;;;21.76;81.21;99593.31;5095285;28;20188;-71
2023/06/21 00:18:55;;;;;;;8.90;8.10;;;;;;;21.62;81.92;99589.44;5095027;28;20544;-71
2023/06/21 00:21:22;;;;;;;9.50;8.30;;;;;;;21.63;81.77;99595.66;5094768;28;20225;-71
2023/06/21 00:23:48;;;;;;;8.83;7.97;;;;;;;21.58;82.08;99587.53;5095464;28;20247;-71
2023/06/21 00:26:15;;;;;;;8.63;8.07;;;;;;;21.55;82.62;99588.88;5095037;28;20195;-71
2023/06/21 00:28:42;;;;;;;8.43;7.93;;;;;;;21.50;82.42;99580.75;5095199;28;20187;-71
2023/06/21 00:31:10;;;;;;;9.67;8.70;;;;;;;21.60;81.99;99586.19;5094783;28;20224;-72
2023/06/21 00:33:38;;;;;;;9.40;8.50;;;;;;;21.60;82.15;99578.06;5094813;28;20572;-71
2023/06/21 00:36:05;;;;;;;9.33;8.63;;;;;;;21.61;81.91;99587.81;5094819;28;20191;-73
2023/06/21 00:38:34;;;;;;;9.53;8.73;;;;;;;21.61;81.63;99587.81;5094564;28;20644;-71
2023/06/21 00:41:04;;;;;;;12.97;9.73;;;;;;;21.61;81.01;99582.41;5094767;28;20254;-72
2023/06/21 00:43:31;;;;;;;13.43;8.73;;;;;;;21.64;80.06;99592.69;5094531;28;20655;-72
2023/06/21 00:45:57;;;;;;;9.50;8.60;;;;;;;21.66;79.34;99595.94;5093493;28;20192;-72
2023/06/21 00:48:28;;;;;;;8.77;8.17;;;;;;;21.68;78.51;99604.59;5094375;28;20592;-72
2023/06/21 00:50:56;;;;;;;9.70;8.80;;;;;;;21.61;78.05;99603.22;5094319;28;20260;-72
2023/06/21 00:53:26;;;;;;;9.40;8.80;;;;;;;21.51;78.65;99603.19;5094319;28;20711;-71
2023/06/21 00:55:52;;;;;;;9.13;8.43;;;;;;;21.43;78.23;99596.38;5094166;28;20653;-71
2023/06/21 00:58:20;;;;;;;10.33;9.53;;;;;;;21.30;79.10;99602.28;5094184;28;20195;-71
2023/06/21 01:00:49;;;;;;;9.97;9.00;;;;;;;21.24;80.16;99599.81;5094629;28;20306;-71
2023/06/21 01:03:17;;;;;;;11.13;10.07;;;;;;;21.25;80.24;99599.56;5094317;28;20191;-71
2023/06/21 01:05:52;;;;;;;10.17;9.53;;;;;;;21.21;80.83;99598.44;5094031;28;20691;-71
2023/06/21 01:08:32;;;;;;;12.00;10.93;;;;;;;20.85;81.70;99604.66;5094533;28;20630;-71
2023/06/21 01:11:07;;;;;;;11.40;10.47;;;;;;;20.73;82.37;99600.50;5094535;28;20188;-71
2023/06/21 01:13:49;;;;;;;11.80;10.67;;;;;;;20.74;82.77;99600.25;5094300;28;20183;-72
2023/06/21 01:16:17;;;;;;;11.23;10.07;;;;;;;20.84;82.43;99594.94;5093831;28;20274;-71
2023/06/21 01:18:46;;;;;;;11.37;10.07;;;;;;;20.90;82.29;99602.00;5094299;28;20195;-71
2023/06/21 01:21:18;;;;;;;10.07;9.47;;;;;;;20.92;82.39;99594.50;5093881;28;20222;-72
2023/06/21 01:23:57;;;;;;;11.70;10.50;;;;;;;20.98;82.10;99598.84;5093716;28;20236;-71
2023/06/21 01:26:43;;;;;;;10.20;9.40;;;;;;;21.00;81.67;99590.47;5093746;28;20375;-71
2023/06/21 01:29:13;;;;;;;10.73;9.57;;;;;;;21.00;82.33;99596.72;5094024;28;20249;-71
2023/06/21 01:31:42;;;;;;;11.33;9.37;;;;;;;21.02;82.27;99593.75;5093936;28;20219;-71
2023/06/21 01:34:10;;;;;;;11.57;9.83;;;;;;;21.03;82.26;99589.97;5093503;28;20230;-71
2023/06/21 01:36:38;;;;;;;10.23;9.33;;;;;;;21.02;82.03;99599.94;5093353;28;20217;-71
2023/06/21 01:39:05;;;;;;;10.93;9.10;;;;;;;21.02;82.27;99589.16;5093411;28;20199;-72
2023/06/21 01:41:32;;;;;;;10.27;9.27;;;;;;;21.06;81.91;99594.84;5093217;28;20223;-72
2023/06/21 01:43:59;;;;;;;9.90;9.17;;;;;;;21.05;81.75;99594.03;5093379;28;20241;-71
2023/06/21 01:46:28;;;;;;;9.30;8.60;;;;;;;21.06;81.43;99592.16;5093199;28;20678;-74
2023/06/21 01:48:56;;;;;;;9.30;8.70;;;;;;;21.04;81.41;99597.81;5093222;28;20199;-71
2023/06/21 01:51:24;;;;;;;11.33;8.57;;;;;;;21.03;80.88;99595.38;5093460;28;20195;-71
2023/06/21 01:53:52;;;;;;;10.13;9.13;;;;;;;20.93;80.66;99593.41;5093407;28;20195;-71
2023/06/21 01:56:19;;;;;;;10.00;8.93;;;;;;;20.82;81.38;99602.47;5093419;28;20241;-71
2023/06/21 01:58:47;;;;;;;9.60;8.70;;;;;;;20.82;81.47;99602.47;5092436;28;20191;-71
2023/06/21 02:01:15;;;;;;;9.70;8.70;;;;;;;20.80;81.68;99601.94;5092942;28;20221;-71
2023/06/21 02:03:49;;;;;;;10.07;9.00;;;;;;;20.81;81.57;99603.56;5092778;28;20191;-71
2023/06/21 02:06:17;;;;;;;15.47;9.07;;;;;;;20.76;82.08;99606.22;5077454;28;20188;-72
2023/06/21 02:08:44;;;;;;;18.70;11.40;;;;;;;20.78;81.74;99611.38;5072560;28;20195;-71
2023/06/21 02:11:11;;;;;;;9.63;8.87;;;;;;;20.81;81.41;99603.56;5072847;28;20250;-71
2023/06/21 02:13:38;;;;;;;10.80;9.67;;;;;;;20.81;81.13;99611.66;5072379;28;20192;-71
2023/06/21 02:16:05;;;;;;;10.53;9.53;;;;;;;20.76;81.99;99611.63;5072931;28;20231;-71
2023/06/21 02:18:32;;;;;;;9.70;8.70;;;;;;;20.75;81.99;99599.22;5072739;28;20196;-71
2023/06/21 02:21:00;;;;;;;9.20;8.57;;;;;;;20.69;82.35;99613.72;5072315;28;20607;-71
2023/06/21 02:23:27;;;;;;;9.83;9.03;;;;;;;20.53;82.80;99611.97;5072569;28;20192;-72
2023/06/21 02:25:53;;;;;;;10.87;9.90;;;;;;;20.32;83.46;99612.88;5072666;28;20245;-69
2023/06/21 02:28:21;;;;;;;9.60;8.90;;;;;;;20.25;82.60;99612.25;5072515;28;20265;-71
2023/06/21 02:30:48;;;;;;;9.63;8.93;;;;;;;20.09;82.99;99621.25;5072478;28;20238;-71
2023/06/21 02:33:14;;;;;;;10.90;10.00;;;;;;;19.94;82.81;99618.41;5072102;28;20192;-72
2023/06/21 02:35:42;;;;;;;11.30;10.50;;;;;;;19.59;84.43;99617.97;5072501;28;20196;-71
2023/06/21 02:38:10;;;;;;;15.20;10.73;;;;;;;19.38;85.59;99618.78;5072055;28;20618;-71
2023/06/21 02:40:37;;;;;;;13.17;11.47;;;;;;;19.34;86.56;99628.44;5072056;28;20643;-72
2023/06/21 02:43:04;;;;;;;11.63;10.53;;;;;;;19.29;86.42;99625.66;5072444;28;20645;-70
2023/06/21 02:45:30;;;;;;;11.47;10.47;;;;;;;19.33;86.80;99621.41;5072100;28;20200;-70
2023/06/21 02:47:57;;;;;;;11.43;10.23;;;;;;;19.31;86.23;99624.34;5072010;28;20192;-70
2023/06/21 02:50:24;;;;;;;16.77;11.10;;;;;;;19.29;86.47;99626.50;5071957;28;20188;-70
2023/06/21 02:52:51;;;;;;;12.07;9.97;;;;;;;19.28;86.36;99627.53;5072243;28;20560;-70
2023/06/21 02:55:19;;;;;;;11.77;10.57;;;;;;;19.34;86.58;99623.88;5072235;28;20198;-70
2023/06/21 02:57:45;;;;;;;18.60;11.17;;;;;;;19.41;86.52;99623.69;5072112;28;20218;-70
2023/06/21 03:00:19;;;;;;;11.23;9.90;;;;;;;19.28;86.49;99624.03;5071874;28;20188;-70
2023/06/21 03:02:46;;;;;;;11.10;9.93;;;;;;;19.36;87.03;99620.94;5072239;28;20196;-70
2023/06/21 03:05:13;;;;;;;13.77;10.33;;;;;;;19.42;86.79;99630.69;5078676;28;20190;-70
2023/06/21 03:07:43;;;;;;;15.37;10.20;;;;;;;19.55;85.72;99630.31;5092206;28;20203;-70
2023/06/21 03:10:11;;;;;;;12.47;9.87;;;;;;;19.66;85.66;99637.47;5091477;28;20194;-70
2023/06/21 03:12:40;;;;;;;15.83;9.30;;;;;;;19.84;85.48;99634.44;5092424;28;20205;-70
2023/06/21 03:15:08;;;;;;;17.03;9.03;;;;;;;20.23;83.53;99647.59;5091818;28;20617;-71
2023/06/21 03:17:35;;;;;;;10.00;9.00;;;;;;;20.63;81.89;99641.78;5092085;28;20196;-69
2023/06/21 03:20:02;;;;;;;9.73;8.80;;;;;;;20.83;80.91;99655.44;5091856;28;20666;-69
2023/06/21 03:22:29;;;;;;;9.43;8.50;;;;;;;20.90;79.83;99655.22;5092057;28;20223;-70
2023/06/21 03:24:56;;;;;;;9.70;8.40;;;;;;;20.87;78.64;99663.81;5092078;28;20195;-69
2023/06/21 03:27:22;;;;;;;9.27;8.67;;;;;;;20.77;79.05;99653.75;5092067;28;20199;-69
2023/06/21 03:29:51;;;;;;;8.03;7.43;;;;;;;20.77;78.97;99656.44;5091652;28;20199;-69
2023/06/21 03:32:17;;;;;;;7.77;7.23;;;;;;;20.69;79.29;99670.41;5092124;28;20239;-69
2023/06/21 03:34:44;;;;;;;9.73;8.03;;;;;;;20.32;80.50;99670.34;5091881;28;20195;-69
2023/06/21 03:37:11;;;;;;;8.70;7.47;;;;;;;20.22;81.31;99661.34;5091964;28;20191;-70
2023/06/21 03:39:38;;;;;;;8.73;8.13;;;;;;;20.34;80.81;99664.72;5091937;28;20577;-70
2023/06/21 03:42:05;;;;;;;17.33;8.43;;;;;;;20.34;81.04;99668.19;5091898;28;20261;-71
2023/06/21 03:44:32;;;;;;;12.30;7.90;;;;;;;20.75;79.90;99658.59;5091831;28;20191;-70
2023/06/21 03:47:00;;;;;;;7.83;7.33;;;;;;;21.12;78.02;99670.28;5091630;28;20192;-70
2023/06/21 03:49:27;;;;;;;7.67;7.10;;;;;;;21.21;77.20;99666.00;5091370;28;20236;-70
2023/06/21 03:51:53;;;;;;;8.77;8.00;;;;;;;21.38;75.98;99668.53;5091508;28;20218;-70
2023/06/21 03:54:20;;;;;;;8.20;7.63;;;;;;;21.41;76.55;99671.53;5091722;28;20275;-70
2023/06/21 03:56:47;;;;;;;8.87;8.07;;;;;;;21.44;76.34;99673.69;5091789;28;20199;-70
2023/06/21 03:59:14;;;;;;;7.80;7.30;;;;;;;21.56;75.77;99671.59;5091685;28;20249;-70
2023/06/21 04:01:41;;;;;;;8.97;7.50;;;;;;;21.64;75.76;99668.41;5091242;28;20223;-70
2023/06/21 04:04:09;;;;;;;9.07;8.17;;;;;;;22.12;74.60;99675.38;5091303;28;20724;-70
2023/06/21 04:06:37;;;;;;;9.13;8.20;;;;;;;23.09;71.34;99666.03;5091640;28;20253;-70
2023/06/21 04:09:05;;;;;;;11.63;7.97;;;;;;;23.97;68.62;99676.13;5091713;28;20191;-70
2023/06/21 04:11:31;;;;;;;14.00;8.23;;;;;;;24.85;64.19;99685.13;5091301;28;20202;-70
2023/06/21 04:13:58;;;;;;;7.87;7.27;;;;;;;25.68;60.47;99689.22;5091263;28;20636;-70
2023/06/21 04:16:26;;;;;;;11.13;7.40;;;;;;;26.26;57.67;99700.81;5091663;28;20194;-69
2023/06/21 04:18:52;;;;;;;7.60;7.13;;;;;;;26.63;55.27;99711.75;5091212;28;20195;-70
2023/06/21 04:21:20;;;;;;;7.83;7.33;;;;;;;26.97;54.09;99713.09;5093495;28;20276;-70
2023/06/21 04:23:47;;;;;;;8.70;7.90;;;;;;;27.16;54.25;99711.13;5095111;28;20188;-70
2023/06/21 04:26:14;;;;;;;8.60;7.53;;;;;;;27.70;51.80;99710.47;5095168;28;20195;-70
2023/06/21 04:28:41;;;;;;;16.97;7.93;;;;;;;27.98;51.08;99706.66;5095087;28;20252;-70
2023/06/21 04:31:07;;;;;;;7.63;6.90;;;;;;;28.41;48.75;99708.75;5095083;28;20262;-71
2023/06/21 04:33:35;;;;;;;13.70;7.47;;;;;;;28.64;47.38;99709.59;5095105;28;20187;-70
2023/06/21 04:36:01;;;;;;;7.93;7.33;;;;;;;28.84;46.81;99709.13;5094512;28;20192;-71
2023/06/21 04:38:30;;;;;;;8.43;7.30;;;;;;;29.06;46.45;99707.22;5094724;28;20626;-70
2023/06/21 04:40:57;;;;;;;7.87;7.40;;;;;;;29.41;45.23;99701.94;5094784;28;20195;-70
2023/06/21 04:43:24;;;;;;;7.73;7.10;;;;;;;29.61;44.80;99707.75;5094407;28;20663;-71
2023/06/21 04:45:51;;;;;;;8.83;7.20;;;;;;;30.01;43.54;99705.78;5095332;28;20276;-70
2023/06/21 04:48:18;;;;;;;7.63;7.03;;;;;;;30.56;42.16;99710.44;5094331;28;20191;-71
2023/06/21 04:50:45;;;;;;;7.63;6.93;;;;;;;30.73;41.94;99704.16;5094646;28;20195;-70
2023/06/21 04:53:12;;;;;;;11.93;8.23;;;;;;;31.24;40.50;99702.19;5094482;28;20203;-69
2023/06/21 04:55:42;;;;;;;7.87;7.00;;;;;;;31.38;40.70;99705.56;5094300;28;20253;-70
2023/06/21 04:58:09;;;;;;;12.83;7.50;;;;;;;31.51;40.10;99701.81;5094736;28;20278;-70
2023/06/21 05:00:36;;;;;;;16.70;6.93;;;;;;;32.05;38.95;99700.94;5094448;28;20282;-70
2023/06/21 05:03:03;;;;;;;11.07;7.33;;;;;;;32.36;37.54;99692.34;5094353;28;20219;-70
2023/06/21 05:05:29;;;;;;;9.97;8.07;;;;;;;32.33;37.48;99685.59;5094334;28;20203;-71
2023/06/21 05:07:56;;;;;;;9.23;8.07;;;;;;;32.53;36.99;99701.31;5093958;28;20213;-70
2023/06/21 05:10:23;;;;;;;14.97;6.87;;;;;;;32.48;36.62;99704.25;5094238;28;20195;-70
2023/06/21 05:12:51;;;;;;;10.67;7.17;;;;;;;32.67;37.34;99707.31;5094260;28;20191;-70
2023/06/21 05:15:18;;;;;;;8.07;7.10;;;;;;;32.53;37.05;99671.03;5093722;28;20191;-71
2023/06/21 05:17:45;;;;;;;7.83;7.13;;;;;;;32.70;37.46;99698.41;5094212;28;20195;-70
2023/06/21 05:20:12;;;;;;;10.33;6.17;;;;;;;32.60;37.23;99703.50;5093928;28;20254;-71
2023/06/21 05:22:38;;;;;;;15.73;7.03;;;;;;;32.49;37.49;99692.09;5093704;28;20254;-70
2023/06/21 05:25:06;;;;;;;8.00;7.17;;;;;;;33.16;36.17;99692.66;5093602;28;20659;-71
2023/06/21 05:27:33;;;;;;;9.13;7.20;;;;;;;33.21;36.08;99699.91;5093675;28;20731;-70
2023/06/21 05:30:01;;;;;;;10.40;7.03;;;;;;;32.50;38.10;99699.22;5093585;28;20199;-71
2023/06/21 05:32:27;;;;;;;8.83;6.80;;;;;;;32.54;38.28;99689.16;5093077;28;20241;-71
2023/06/21 05:34:54;;;;;;;9.90;6.50;;;;;;;32.59;38.06;99696.41;5093659;28;20191;-70
2023/06/21 05:37:21;;;;;;;7.67;6.30;;;;;;;32.96;37.34;99704.50;5093361;28;20635;-70
2023/06/21 05:39:48;;;;;;;7.83;7.00;;;;;;;32.85;37.04;99681.31;5093317;28;20191;-71
2023/06/21 05:42:15;;;;;;;11.80;6.67;;;;;;;32.91;37.19;99690.97;5093418;28;20218;-70
2023/06/21 05:44:41;;;;;;;7.53;6.77;;;;;;;33.20;36.50;99695.56;5093623;28;20260;-69
2023/06/21 05:47:09;;;;;;;7.30;6.40;;;;;;;33.11;36.60;99701.13;5093535;28;20196;-70
2023/06/21 05:49:36;;;;;;;9.47;6.37;;;;;;;33.21;36.31;99695.22;5093107;28;20719;-71
2023/06/21 05:52:03;;;;;;;7.40;6.80;;;;;;;33.59;35.25;99705.97;5093291;28;20191;-71
2023/06/21 05:54:30;;;;;;;6.80;6.40;;;;;;;33.35;35.22;99700.41;5093340;28;20191;-70
2023/06/21 05:56:56;;;;;;;7.17;6.60;;;;;;;32.66;37.03;99696.69;5093119;28;20199;-71
2023/06/21 05:59:23;;;;;;;7.27;6.67;;;;;;;32.57;37.17;99699.50;5092964;28;20739;-71
2023/06/21 06:01:50;;;;;;;8.40;6.90;;;;;;;32.23;38.60;99699.72;5093091;28;20219;-72
2023/06/21 06:04:18;;;;;;;6.90;6.30;;;;;;;32.25;38.20;99694.66;5093266;28;20252;-72
2023/06/21 06:06:44;;;;;;;6.83;6.23;;;;;;;32.14;38.11;99698.94;5073442;28;20351;-72
2023/06/21 06:09:12;;;;;;;6.90;6.30;;;;;;;32.43;37.95;99695.41;5072927;28;20196;-70
2023/06/21 06:11:39;;;;;;;6.87;5.93;;;;;;;32.56;37.71;99695.13;5072714;28;20199;-71
2023/06/21 06:14:06;;;;;;;10.00;5.77;;;;;;;32.81;37.85;99688.63;5072490;28;20249;-72
2023/06/21 06:16:32;;;;;;;11.17;6.93;;;;;;;33.05;37.11;99685.97;5072712;28;20199;-71
2023/06/21 06:18:59;;;;;;;7.03;6.43;;;;;;;33.11;37.37;99689.31;5072767;28;20196;-70
2023/06/21 06:21:27;;;;;;;6.70;5.80;;;;;;;33.33;37.02;99698.00;5072246;28;20192;-71
2023/06/21 06:23:54;;;;;;;8.80;6.53;;;;;;;33.54;36.61;99688.88;5072711;28;20188;-72
2023/06/21 06:26:23;;;;;;;15.63;7.17;;;;;;;33.64;35.99;99685.66;5072316;28;20261;-71
2023/06/21 06:28:50;;;;;;;10.90;5.80;;;;;;;33.71;34.70;99683.16;5072087;28;20655;-71
2023/06/21 06:31:19;;;;;;;7.80;5.38;;;;;;;33.91;34.39;99694.09;5071962;28;20231;-71
2023/06/21 06:33:46;;;;;;;10.98;6.05;;;;;;;34.03;34.31;99682.25;5072577;28;20196;-71
2023/06/21 06:36:13;;;;;;;12.77;6.30;;;;;;;34.21;33.86;99684.41;5072483;28;20278;-71
2023/06/21 06:38:41;;;;;;;6.97;5.80;;;;;;;34.32;33.16;99684.75;5072463;28;20253;-71
2023/06/21 06:41:08;;;;;;;14.85;7.35;;;;;;;34.66;33.20;99689.75;5072305;28;20257;-72
2023/06/21 06:43:35;;;;;;;8.82;5.45;;;;;;;34.55;32.25;99677.59;5072362;28;20273;-71
2023/06/21 06:46:01;;;;;;;5.53;5.10;;;;;;;34.64;31.90;99672.72;5072274;28;20278;-71
2023/06/21 06:48:28;;;;;;;6.60;5.63;;;;;;;34.85;32.31;99667.84;5071749;28;20196;-71
2023/06/21 06:50:55;;;;;;;9.55;5.68;;;;;;;34.96;32.22;99671.72;5072024;28;20195;-71
2023/06/21 06:53:21;;;;;;;8.63;5.93;;;;;;;35.09;31.74;99656.69;5071934;28;20195;-72
2023/06/21 06:55:52;;;;;;;6.47;5.15;;;;;;;35.16;31.22;99663.22;5072001;28;20188;-70
2023/06/21 06:58:18;;;;;;;8.45;5.70;;;;;;;35.58;30.82;99655.22;5072229;28;20270;-70
2023/06/21 07:00:45;;;;;;;5.60;5.05;;;;;;;35.69;30.49;99656.31;5071652;28;20624;-70
2023/06/21 07:03:12;;;;;;;7.38;5.72;;;;;;;35.72;31.04;99650.84;5071708;28;20250;-70
2023/06/21 07:05:43;;;;;;;9.75;6.40;;;;;;;35.73;30.61;99657.19;5082201;28;20620;-70
2023/06/21 07:08:10;;;;;;;8.98;5.47;;;;;;;35.72;30.34;99647.31;5091762;28;20655;-70
2023/06/21 07:10:37;;;;;;;8.90;5.95;;;;;;;35.86;29.54;99647.66;5091533;28;20191;-70
2023/06/21 07:13:05;;;;;;;6.75;6.13;;;;;;;35.80;30.18;99658.19;5091922;28;20724;-70
2023/06/21 07:15:32;;;;;;;8.82;5.47;;;;;;;35.80;29.67;99657.41;5091637;28;20202;-70
2023/06/21 07:17:58;;;;;;;10.80;5.50;;;;;;;35.92;30.42;99648.97;5091859;28;20192;-70
2023/06/21 07:20:25;;;;;;;6.70;5.80;;;;;;;35.97;29.86;99645.94;5092058;28;20195;-71
2023/06/21 07:22:52;;;;;;;8.63;6.05;;;;;;;36.07;30.52;99645.38;5092102;28;20218;-71
2023/06/21 07:25:19;;;;;;;7.32;5.82;;;;;;;36.22;30.16;99647.34;5091624;28;20249;-72
2023/06/21 07:27:46;;;;;;;13.65;5.93;;;;;;;36.23;29.18;99646.19;5091733;28;20252;-72
2023/06/21 07:30:14;;;;;;;10.90;5.65;;;;;;;36.24;29.13;99645.00;5091505;28;20227;-72
2023/06/21 07:32:41;;;;;;;8.77;5.53;;;;;;;36.45;29.89;99640.75;5092304;28;20256;-71
2023/06/21 07:35:08;;;;;;;20.40;6.75;;;;;;;36.55;28.64;99639.38;5092037;28;20351;-72
2023/06/21 07:37:35;;;;;;;6.18;5.57;;;;;;;36.54;28.45;99637.75;5091472;28;20191;-72
2023/06/21 07:40:03;;;;;;;12.45;5.57;;;;;;;36.53;28.83;99636.13;5091772;28;20187;-72
2023/06/21 07:42:29;;;;;;;8.23;5.50;;;;;;;36.53;28.63;99638.91;5091655;28;20594;-72
2023/06/21 07:44:56;;;;;;;6.07;5.47;;;;;;;35.97;29.08;99632.13;5091817;28;20244;-71
2023/06/21 07:47:24;;;;;;;7.57;5.40;;;;;;;35.85;29.44;99629.47;5091666;28;20187;-72
2023/06/21 07:49:51;;;;;;;11.15;6.15;;;;;;;35.97;29.93;99629.38;5091787;28;20192;-72
2023/06/21 07:52:18;;;;;;;7.38;5.28;;;;;;;36.15;28.66;99627.78;5091577;28;20206;-72
2023/06/21 07:54:47;;;;;;;6.80;5.25;;;;;;;36.39;29.31;99633.91;5091847;28;20195;-72
2023/06/21 07:57:15;;;;;;;8.32;5.47;;;;;;;36.40;28.34;99637.44;5095161;28;20222;-72
2023/06/21 07:59:41;;;;;;;6.25;5.05;;;;;;;36.49;27.81;99636.06;5095803;28;20191;-72
2023/06/21 08:02:09;;;;;;;5.47;5.03;;;;;;;36.45;27.57;99628.84;5095227;28;20199;-72
2023/06/21 08:04:38;;;;;;;5.47;5.10;;;;;;;36.53;27.89;99631.41;5093623;28;20223;-72
2023/06/21 08:07:05;;;;;;;5.15;4.85;;;;;;;36.25;28.56;99632.78;5074836;28;20616;-73
2023/06/21 08:09:32;;;;;;;5.50;5.15;;;;;;;35.41;28.71;99633.47;5074901;28;20198;-72
2023/06/21 08:12:00;;;;;;;5.50;5.10;;;;;;;35.42;29.00;99630.38;5074905;28;20242;-73
2023/06/21 08:14:27;;;;;;;5.32;5.03;;;;;;;35.77;28.70;99624.94;5074465;28;20279;-73
2023/06/21 08:16:55;;;;;;;16.63;6.25;;;;;;;36.07;28.79;99629.59;5074868;28;20245;-72
2023/06/21 08:19:21;;;;;;;6.28;5.90;;;;;;;36.29;28.83;99630.91;5074725;28;20196;-72
2023/06/21 08:21:50;;;;;;;21.60;6.90;;;;;;;36.15;29.16;99627.78;5074457;28;20306;-72
2023/06/21 08:24:17;;;;;;;5.88;5.32;;;;;;;36.15;28.15;99619.47;5074338;28;20219;-72
2023/06/21 08:26:43;;;;;;;6.03;5.40;;;;;;;35.99;28.52;99624.25;5074906;28;20196;-71
2023/06/21 08:29:10;;;;;;;6.32;5.20;;;;;;;35.42;28.19;99633.13;5074394;28;20250;-71
2023/06/21 08:31:37;;;;;;;5.60;5.22;;;;;;;35.32;28.68;99621.81;5074551;28;20699;-71
2023/06/21 08:34:03;;;;;;;7.70;5.57;;;;;;;35.48;28.71;99594.97;5074528;28;20203;-73
2023/06/21 08:36:30;;;;;;;4.78;4.53;;;;;;;35.92;27.89;99615.78;5088762;28;20272;-71
2023/06/21 08:38:58;;;;;;;6.57;4.80;;;;;;;36.17;27.35;99611.63;5094787;28;20191;-70
2023/06/21 08:41:26;;;;;;;7.70;5.20;;;;;;;36.31;27.38;99611.97;5094344;28;20616;-71
2023/06/21 08:43:53;;;;;;;5.07;4.63;;;;;;;36.41;27.42;99605.81;5094269;28;20223;-70
2023/06/21 08:46:23;;;;;;;5.18;4.03;;;;;;;36.54;28.29;99610.88;5094485;28;20191;-83
2023/06/21 08:48:52;;;;;;;8.45;4.68;;;;;;;36.08;27.53;99602.72;5094906;28;20641;-80
2023/06/21 08:51:21;;;;;;;4.75;4.45;;;;;;;36.09;28.29;99601.56;5094066;28;20662;-72
2023/06/21 08:53:51;;;;;;;5.32;4.93;;;;;;;36.37;25.90;99604.94;5094181;28;20209;-71
2023/06/21 08:56:23;;;;;;;5.60;5.15;;;;;;;36.38;26.48;99595.50;5094556;28;20195;-71
2023/06/21 08:58:57;;;;;;;5.18;4.68;;;;;;;36.45;27.03;99593.69;5094497;28;20180;-70
2023/06/21 09:01:26;;;;;;;5.50;5.20;;;;;;;36.63;25.88;99588.50;5094312;28;20183;-70
2023/06/21 09:03:57;;;;;;;5.15;4.85;;;;;;;36.72;26.11;99597.41;5093463;28;20641;-71
2023/06/21 09:06:25;;;;;;;4.93;4.50;;;;;;;36.73;26.49;99597.03;5093190;28;20245;-72
2023/06/21 09:08:53;;;;;;;27.40;6.20;;;;;;;36.62;26.67;99586.91;5093782;28;20252;-71
2023/06/21 09:11:22;;;;;;;4.97;4.50;;;;;;;36.28;26.69;99596.06;5094159;28;20197;-73
2023/06/21 09:13:49;;;;;;;5.18;4.50;;;;;;;36.53;26.09;99594.63;5092776;28;20724;-72
2023/06/21 09:16:16;;;;;;;4.68;4.47;;;;;;;36.17;25.97;99603.34;5091765;28;20264;-71
2023/06/21 09:18:44;;;;;;;4.80;4.43;;;;;;;35.72;25.64;99601.09;5092002;28;20659;-72
2023/06/21 09:21:13;;;;;;;5.13;4.88;;;;;;;35.60;26.19;99600.41;5093085;28;20628;-71
2023/06/21 09:23:40;;;;;;;7.00;4.75;;;;;;;35.54;26.12;99588.00;5093016;28;20651;-70
2023/06/21 09:26:08;;;;;;;4.10;3.90;;;;;;;35.85;25.72;99599.06;5094028;28;20296;-71
2023/06/21 09:28:37;;;;;;;4.70;4.40;;;;;;;35.54;25.73;99604.59;5093265;28;20627;-71
2023/06/21 09:31:03;;;;;;;7.65;4.30;;;;;;;35.86;25.01;99608.94;5093711;28;20292;-71
2023/06/21 09:33:31;;;;;;;3.95;3.60;;;;;;;35.89;23.41;99614.53;5093514;28;20205;-71
2023/06/21 09:35:58;;;;;;;4.75;3.40;;;;;;;35.85;23.27;99610.13;5093338;28;20195;-71
2023/06/21 09:38:28;;;;;;;6.78;3.20;;;;;;;36.04;23.31;99612.91;5093447;28;20187;-71
2023/06/21 09:40:55;;;;;;;3.30;3.20;;;;;;;36.02;22.91;99609.72;5093411;28;20671;-70
2023/06/21 09:43:23;;;;;;;4.85;3.58;;;;;;;35.94;22.83;99607.94;5093087;28;20223;-71
2023/06/21 09:46:03;;;;;;;3.10;2.97;;;;;;;36.08;23.10;99586.13;5093346;28;20256;-71
2023/06/21 09:48:33;;;;;;;3.60;3.50;;;;;;;36.42;22.64;99590.84;5092820;28;20191;-71
2023/06/21 09:51:02;;;;;;;3.17;3.08;;;;;;;36.55;21.37;99598.63;5093406;28;20290;-71
2023/06/21 09:53:28;;;;;;;3.50;2.90;;;;;;;36.75;21.93;99574.53;5093287;28;20199;-71
2023/06/21 09:55:56;;;;;;;3.65;3.35;;;;;;;36.76;22.26;99589.97;5092960;28;20546;-71
2023/06/21 09:58:23;;;;;;;3.78;3.47;;;;;;;36.86;22.22;99595.72;5092568;28;20187;-72
2023/06/21 10:00:50;;;;;;;3.05;2.95;;;;;;;36.82;21.39;99582.94;5092923;28;20195;-70
2023/06/21 10:03:22;;;;;;;3.17;3.08;;;;;;;36.96;21.29;99580.47;5092738;28;20227;-71
2023/06/21 10:05:56;;;;;;;4.70;3.03;;;;;;;36.95;21.11;99576.88;5080753;28;20666;-73
2023/06/21 10:08:25;;;;;;;3.92;3.60;;;;;;;37.09;21.40;99570.78;5072704;28;20187;-71
2023/06/21 10:10:51;;;;;;;3.88;3.78;;;;;;;37.02;21.66;99570.66;5072786;28;20223;-71
2023/06/21 10:13:24;;;;;;;3.17;3.08;;;;;;;36.74;22.23;99570.13;5072422;28;20257;-72
2023/06/21 10:15:51;;;;;;;3.50;3.28;;;;;;;36.86;22.30;99567.19;5072297;28;20188;-72
2023/06/21 10:18:19;;;;;;;3.95;3.72;;;;;;;36.95;22.61;99562.25;5072044;28;20257;-71
2023/06/21 10:20:51;;;;;;;9.07;3.90;;;;;;;37.04;22.40;99568.34;5072173;28;20192;-72
2023/06/21 10:23:19;;;;;;;3.60;3.40;;;;;;;37.09;22.20;99568.81;5071929;28;20683;-72
2023/06/21 10:25:48;;;;;;;6.95;3.42;;;;;;;37.11;21.53;99574.00;5072186;28;20196;-71
2023/06/21 10:28:18;;;;;;;3.40;3.20;;;;;;;37.25;21.01;99563.19;5072011;28;20202;-71
2023/06/21 10:30:45;;;;;;;3.55;3.40;;;;;;;37.22;21.42;99569.44;5072441;28;20281;-71
2023/06/21 10:33:16;;;;;;;3.50;3.30;;;;;;;37.31;20.99;99564.44;5072209;28;20340;-71
2023/06/21 10:35:48;;;;;;;3.40;3.10;;;;;;;37.37;21.63;99565.75;5072574;28;20192;-71
2023/06/21 10:38:25;;;;;;;3.95;3.70;;;;;;;37.27;22.57;99554.50;5071946;28;20618;-71
2023/06/21 10:40:55;;;;;;;3.78;3.45;;;;;;;37.08;21.40;99552.56;5072448;28;20187;-71
2023/06/21 10:43:22;;;;;;;7.05;3.30;;;;;;;36.94;21.92;99560.63;5071927;28;20281;-72
2023/06/21 10:45:51;;;;;;;3.97;3.55;;;;;;;36.87;21.75;99544.66;5072459;28;20557;-71
2023/06/21 10:48:18;;;;;;;4.68;3.50;;;;;;;36.91;22.25;99553.06;5071998;28;20245;-71
2023/06/21 10:50:47;;;;;;;3.20;3.00;;;;;;;36.92;21.63;99551.88;5071801;28;20210;-71
2023/06/21 10:53:17;;;;;;;4.28;3.88;;;;;;;37.00;21.85;99561.94;5071628;28;20223;-71
2023/06/21 10:55:43;;;;;;;3.92;3.70;;;;;;;36.77;22.39;99552.78;5071600;28;20246;-71
2023/06/21 10:58:13;;;;;;;3.95;3.60;;;;;;;36.28;22.51;99549.03;5071932;28;20333;-71
2023/06/21 11:00:40;;;;;;;3.88;3.50;;;;;;;36.39;22.58;99544.50;5071505;28;20664;-72
2023/06/21 11:03:12;;;;;;;3.67;3.47;;;;;;;36.41;21.99;99540.22;5071505;28;20192;-73
2023/06/21 11:05:40;;;;;;;3.35;3.20;;;;;;;36.35;23.00;99535.34;5081747;28;20195;-73
2023/06/21 11:08:09;;;;;;;4.70;4.18;;;;;;;36.59;23.62;99540.56;5091498;28;20252;-72
2023/06/21 11:10:39;;;;;;;4.13;3.72;;;;;;;36.67;23.72;99542.28;5091679;28;20201;-72
2023/06/21 11:13:06;;;;;;;5.53;3.70;;;;;;;36.76;23.39;99534.59;5091825;28;20199;-73
2023/06/21 11:15:33;;;;;;;4.18;3.88;;;;;;;36.74;23.29;99542.44;5092058;28;20191;-73
2023/06/21 11:18:01;;;;;;;4.28;3.75;;;;;;;36.79;23.37;99550.47;5091839;28;20248;-72
2023/06/21 11:20:31;;;;;;;4.53;4.13;;;;;;;36.51;23.72;99538.81;5092013;28;20219;-72
2023/06/21 11:22:59;;;;;;;4.43;4.10;;;;;;;36.18;24.35;99544.06;5091816;28;20194;-73
2023/06/21 11:25:28;;;;;;;4.60;4.18;;;;;;;36.13;24.78;99539.59;5091977;28;20253;-72
2023/06/21 11:28:26;;;;;;;4.90;4.30;;;;;;;35.87;24.44;99536.69;5091609;28;20199;-74
2023/06/21 11:31:12;;;;;;;5.68;4.20;;;;;;;35.89;25.65;99530.78;5093579;28;20234;-72
2023/06/21 11:33:51;;;;;;;4.55;4.00;;;;;;;35.72;24.70;99531.19;5096030;28;20198;-72
2023/06/21 11:36:21;;;;;;;4.50;4.05;;;;;;;35.69;25.12;99527.16;5096163;28;20187;-72